sensor_id;sensor_type;location;lat;lon;timestamp;temperature;humidity
20400;DHT22;10359;53.596;22.520;2023-04-06T00:02:02;-1.40;1.00
20400;DHT22;10359;53.596;22.520;2023-04-06T00:04:52;-1.50;1.00
20400;DHT22;10359;53.596;22.520;2023-04-06T00:07:41;-1.30;1.00
20400;DHT22;10359;53.596;22.520;2023-04-06T00:10:31;-1.30;1.00
20400;DHT22;10359;53.596;22.520;2023-04-06T00:13:21;-1.20;1.00
20400;DHT22;10359;53.596;22.520;2023-04-06T00:16:12;-1.20;1.00
20400;DHT22;10359;53.596;22.520;2023-04-06T00:19:01;-1.10;1.00
20400;DHT22;10359;53.596;22.520;2023-04-06T00:21:51;-1.00;1.00
20400;DHT22;10359;53.596;22.520;2023-04-06T00:24:41;-0.90;1.00
20400;DHT22;10359;53.596;22.520;2023-04-06T00:27:30;-0.90;1.00
20400;DHT22;10359;53.596;22.520;2023-04-06T00:30:20;-0.80;1.00
20400;DHT22;10359;53.596;22.520;2023-04-06T00:33:11;-0.60;1.00
20400;DHT22;10359;53.596;22.520;2023-04-06T00:36:00;-0.60;1.00
20400;DHT22;10359;53.596;22.520;2023-04-06T00:38:50;-0.40;1.00
20400;DHT22;10359;53.596;22.520;2023-04-06T00:41:44;-0.40;1.00
20400;DHT22;10359;53.596;22.520;2023-04-06T00:44:35;-0.40;1.00
20400;DHT22;10359;53.596;22.520;2023-04-06T00:47:25;-0.30;1.00
20400;DHT22;10359;53.596;22.520;2023-04-06T00:50:17;-0.30;1.00
20400;DHT22;10359;53.596;22.520;2023-04-06T00:53:06;-0.30;1.00
20400;DHT22;10359;53.596;22.520;2023-04-06T00:55:56;-0.30;1.00
20400;DHT22;10359;53.596;22.520;2023-04-06T00:58:45;-0.30;1.00
20400;DHT22;10359;53.596;22.520;2023-04-06T01:01:35;-0.30;1.00
20400;DHT22;10359;53.596;22.520;2023-04-06T01:04:24;-0.30;1.00
20400;DHT22;10359;53.596;22.520;2023-04-06T01:07:15;-0.40;1.00
20400;DHT22;10359;53.596;22.520;2023-04-06T01:10:06;-0.40;1.00
20400;DHT22;10359;53.596;22.520;2023-04-06T01:12:55;-0.40;1.00
20400;DHT22;10359;53.596;22.520;2023-04-06T01:15:46;-0.40;1.00
20400;DHT22;10359;53.596;22.520;2023-04-06T01:18:37;-0.30;1.00
20400;DHT22;10359;53.596;22.520;2023-04-06T01:21:26;-0.20;1.00
20400;DHT22;10359;53.596;22.520;2023-04-06T01:24:17;-0.20;1.00
20400;DHT22;10359;53.596;22.520;2023-04-06T01:27:07;-0.10;1.00
20400;DHT22;10359;53.596;22.520;2023-04-06T01:29:57;0.00;1.00
20400;DHT22;10359;53.596;22.520;2023-04-06T01:32:47;0.10;1.00
20400;DHT22;10359;53.596;22.520;2023-04-06T01:35:36;0.10;1.00
20400;DHT22;10359;53.596;22.520;2023-04-06T01:38:26;0.20;1.00
20400;DHT22;10359;53.596;22.520;2023-04-06T01:41:17;0.20;1.00
20400;DHT22;10359;53.596;22.520;2023-04-06T01:44:07;0.30;1.00
20400;DHT22;10359;53.596;22.520;2023-04-06T01:46:57;0.40;1.00
20400;DHT22;10359;53.596;22.520;2023-04-06T01:49:47;0.50;1.00
20400;DHT22;10359;53.596;22.520;2023-04-06T01:52:37;0.60;1.00
20400;DHT22;10359;53.596;22.520;2023-04-06T01:55:27;0.60;1.00
20400;DHT22;10359;53.596;22.520;2023-04-06T01:58:18;0.70;1.00
20400;DHT22;10359;53.596;22.520;2023-04-06T02:01:07;0.70;1.00
20400;DHT22;10359;53.596;22.520;2023-04-06T02:03:57;0.70;1.00
20400;DHT22;10359;53.596;22.520;2023-04-06T02:06:46;0.80;1.00
20400;DHT22;10359;53.596;22.520;2023-04-06T02:09:36;0.80;1.00
20400;DHT22;10359;53.596;22.520;2023-04-06T02:12:37;0.90;1.00
20400;DHT22;10359;53.596;22.520;2023-04-06T02:15:28;0.90;1.00
20400;DHT22;10359;53.596;22.520;2023-04-06T02:18:18;1.00;1.00
20400;DHT22;10359;53.596;22.520;2023-04-06T02:21:08;0.90;1.00
20400;DHT22;10359;53.596;22.520;2023-04-06T02:23:58;0.90;1.00
20400;DHT22;10359;53.596;22.520;2023-04-06T02:26:50;0.90;1.00
20400;DHT22;10359;53.596;22.520;2023-04-06T02:29:41;0.90;1.00
20400;DHT22;10359;53.596;22.520;2023-04-06T02:32:31;0.90;1.00
20400;DHT22;10359;53.596;22.520;2023-04-06T02:35:21;0.90;1.00
20400;DHT22;10359;53.596;22.520;2023-04-06T02:38:11;0.90;1.00
20400;DHT22;10359;53.596;22.520;2023-04-06T02:41:00;0.80;1.00
20400;DHT22;10359;53.596;22.520;2023-04-06T02:43:50;0.80;1.00
20400;DHT22;10359;53.596;22.520;2023-04-06T02:46:39;0.80;1.00
20400;DHT22;10359;53.596;22.520;2023-04-06T02:49:30;0.80;1.00
20400;DHT22;10359;53.596;22.520;2023-04-06T02:52:20;0.80;1.00
20400;DHT22;10359;53.596;22.520;2023-04-06T02:55:09;0.90;1.00
20400;DHT22;10359;53.596;22.520;2023-04-06T02:57:59;0.90;1.00
20400;DHT22;10359;53.596;22.520;2023-04-06T03:00:49;0.90;1.00
20400;DHT22;10359;53.596;22.520;2023-04-06T03:03:38;1.00;1.00
20400;DHT22;10359;53.596;22.520;2023-04-06T03:06:30;1.10;1.00
20400;DHT22;10359;53.596;22.520;2023-04-06T03:09:19;1.10;1.00
20400;DHT22;10359;53.596;22.520;2023-04-06T03:12:09;1.10;1.00
20400;DHT22;10359;53.596;22.520;2023-04-06T03:14:58;1.10;1.00
20400;DHT22;10359;53.596;22.520;2023-04-06T03:17:48;1.10;1.00
20400;DHT22;10359;53.596;22.520;2023-04-06T03:20:38;1.10;1.00
20400;DHT22;10359;53.596;22.520;2023-04-06T03:23:29;1.00;1.00
20400;DHT22;10359;53.596;22.520;2023-04-06T03:26:19;1.00;1.00
20400;DHT22;10359;53.596;22.520;2023-04-06T03:29:10;1.10;1.00
20400;DHT22;10359;53.596;22.520;2023-04-06T03:32:00;1.10;1.00
20400;DHT22;10359;53.596;22.520;2023-04-06T03:34:49;1.20;1.00
20400;DHT22;10359;53.596;22.520;2023-04-06T03:37:39;1.20;1.00
20400;DHT22;10359;53.596;22.520;2023-04-06T03:40:30;1.20;1.00
20400;DHT22;10359;53.596;22.520;2023-04-06T03:43:20;1.20;1.00
20400;DHT22;10359;53.596;22.520;2023-04-06T03:46:10;1.20;1.00
20400;DHT22;10359;53.596;22.520;2023-04-06T03:49:00;1.30;1.00
20400;DHT22;10359;53.596;22.520;2023-04-06T03:51:50;1.40;1.00
20400;DHT22;10359;53.596;22.520;2023-04-06T03:54:39;1.40;1.00
20400;DHT22;10359;53.596;22.520;2023-04-06T03:57:31;1.40;1.00
20400;DHT22;10359;53.596;22.520;2023-04-06T04:00:22;1.40;1.00
20400;DHT22;10359;53.596;22.520;2023-04-06T04:03:12;1.50;1.00
20400;DHT22;10359;53.596;22.520;2023-04-06T04:06:02;1.50;1.00
20400;DHT22;10359;53.596;22.520;2023-04-06T04:08:52;1.50;1.00
20400;DHT22;10359;53.596;22.520;2023-04-06T04:11:42;1.60;1.00
20400;DHT22;10359;53.596;22.520;2023-04-06T04:14:36;1.60;1.00
20400;DHT22;10359;53.596;22.520;2023-04-06T04:17:25;1.60;1.00
20400;DHT22;10359;53.596;22.520;2023-04-06T04:20:15;1.70;1.00
20400;DHT22;10359;53.596;22.520;2023-04-06T04:23:05;1.70;1.00
20400;DHT22;10359;53.596;22.520;2023-04-06T04:25:55;1.70;1.00
20400;DHT22;10359;53.596;22.520;2023-04-06T04:28:45;1.70;1.00
20400;DHT22;10359;53.596;22.520;2023-04-06T04:31:36;1.70;1.00
20400;DHT22;10359;53.596;22.520;2023-04-06T04:34:26;1.70;1.00
20400;DHT22;10359;53.596;22.520;2023-04-06T04:37:16;1.70;1.00
20400;DHT22;10359;53.596;22.520;2023-04-06T04:40:06;1.80;1.00
20400;DHT22;10359;53.596;22.520;2023-04-06T04:42:56;1.80;1.00
20400;DHT22;10359;53.596;22.520;2023-04-06T04:45:46;1.80;1.00
20400;DHT22;10359;53.596;22.520;2023-04-06T04:48:38;1.70;1.00
20400;DHT22;10359;53.596;22.520;2023-04-06T04:51:27;1.80;1.00
20400;DHT22;10359;53.596;22.520;2023-04-06T04:54:18;1.80;1.00
20400;DHT22;10359;53.596;22.520;2023-04-06T04:57:08;1.70;1.00
20400;DHT22;10359;53.596;22.520;2023-04-06T04:59:58;1.70;1.00
20400;DHT22;10359;53.596;22.520;2023-04-06T05:02:49;1.70;1.00
20400;DHT22;10359;53.596;22.520;2023-04-06T05:05:40;1.80;1.00
20400;DHT22;10359;53.596;22.520;2023-04-06T05:08:30;1.80;1.00
20400;DHT22;10359;53.596;22.520;2023-04-06T05:11:20;1.90;1.00
20400;DHT22;10359;53.596;22.520;2023-04-06T05:14:10;1.90;1.00
20400;DHT22;10359;53.596;22.520;2023-04-06T05:16:59;1.90;1.00
20400;DHT22;10359;53.596;22.520;2023-04-06T05:19:49;1.90;1.00
20400;DHT22;10359;53.596;22.520;2023-04-06T05:22:40;2.00;1.00
20400;DHT22;10359;53.596;22.520;2023-04-06T05:25:30;1.90;1.00
20400;DHT22;10359;53.596;22.520;2023-04-06T05:28:20;1.90;1.00
20400;DHT22;10359;53.596;22.520;2023-04-06T05:31:10;1.90;1.00
20400;DHT22;10359;53.596;22.520;2023-04-06T05:33:59;1.90;1.00
20400;DHT22;10359;53.596;22.520;2023-04-06T05:36:49;1.90;1.00
20400;DHT22;10359;53.596;22.520;2023-04-06T05:39:41;1.90;1.00
20400;DHT22;10359;53.596;22.520;2023-04-06T05:42:36;2.00;1.00
20400;DHT22;10359;53.596;22.520;2023-04-06T05:45:26;2.00;1.00
20400;DHT22;10359;53.596;22.520;2023-04-06T05:48:15;1.90;1.00
20400;DHT22;10359;53.596;22.520;2023-04-06T05:51:05;1.90;1.00
20400;DHT22;10359;53.596;22.520;2023-04-06T05:53:55;1.90;1.00
20400;DHT22;10359;53.596;22.520;2023-04-06T05:56:47;2.10;1.00
20400;DHT22;10359;53.596;22.520;2023-04-06T05:59:37;2.20;1.00
20400;DHT22;10359;53.596;22.520;2023-04-06T06:02:27;2.10;1.00
20400;DHT22;10359;53.596;22.520;2023-04-06T06:05:17;2.20;1.00
20400;DHT22;10359;53.596;22.520;2023-04-06T06:08:07;2.10;1.00
20400;DHT22;10359;53.596;22.520;2023-04-06T06:10:57;2.10;1.00
20400;DHT22;10359;53.596;22.520;2023-04-06T06:13:48;2.10;1.00
20400;DHT22;10359;53.596;22.520;2023-04-06T06:16:41;2.00;1.00
20400;DHT22;10359;53.596;22.520;2023-04-06T06:19:34;2.10;1.00
20400;DHT22;10359;53.596;22.520;2023-04-06T06:22:24;2.10;1.00
20400;DHT22;10359;53.596;22.520;2023-04-06T06:25:13;2.20;1.00
20400;DHT22;10359;53.596;22.520;2023-04-06T06:28:03;2.10;1.00
20400;DHT22;10359;53.596;22.520;2023-04-06T06:30:57;2.10;1.00
20400;DHT22;10359;53.596;22.520;2023-04-06T06:33:46;2.10;1.00
20400;DHT22;10359;53.596;22.520;2023-04-06T06:36:38;2.20;1.00
20400;DHT22;10359;53.596;22.520;2023-04-06T06:39:28;2.30;1.00
20400;DHT22;10359;53.596;22.520;2023-04-06T06:42:17;2.20;1.00
20400;DHT22;10359;53.596;22.520;2023-04-06T06:45:08;2.30;1.00
20400;DHT22;10359;53.596;22.520;2023-04-06T06:48:00;2.40;1.00
20400;DHT22;10359;53.596;22.520;2023-04-06T06:50:49;2.30;1.00
20400;DHT22;10359;53.596;22.520;2023-04-06T06:53:39;2.30;1.00
20400;DHT22;10359;53.596;22.520;2023-04-06T06:56:29;2.30;1.00
20400;DHT22;10359;53.596;22.520;2023-04-06T06:59:19;2.10;1.00
20400;DHT22;10359;53.596;22.520;2023-04-06T07:02:10;2.10;1.00
20400;DHT22;10359;53.596;22.520;2023-04-06T07:05:01;2.10;1.00
20400;DHT22;10359;53.596;22.520;2023-04-06T07:08:10;2.20;1.00
20400;DHT22;10359;53.596;22.520;2023-04-06T07:11:00;2.30;1.00
20400;DHT22;10359;53.596;22.520;2023-04-06T07:13:49;2.50;1.00
20400;DHT22;10359;53.596;22.520;2023-04-06T07:16:40;2.70;1.00
20400;DHT22;10359;53.596;22.520;2023-04-06T07:19:31;2.60;1.00
20400;DHT22;10359;53.596;22.520;2023-04-06T07:22:22;2.60;1.00
20400;DHT22;10359;53.596;22.520;2023-04-06T07:25:13;2.50;1.00
20400;DHT22;10359;53.596;22.520;2023-04-06T07:28:03;2.40;1.00
20400;DHT22;10359;53.596;22.520;2023-04-06T07:30:53;2.40;1.00
20400;DHT22;10359;53.596;22.520;2023-04-06T07:33:43;2.50;1.00
20400;DHT22;10359;53.596;22.520;2023-04-06T07:36:33;2.60;1.00
20400;DHT22;10359;53.596;22.520;2023-04-06T07:39:25;2.70;1.00
20400;DHT22;10359;53.596;22.520;2023-04-06T07:42:15;2.80;1.00
20400;DHT22;10359;53.596;22.520;2023-04-06T07:45:06;2.90;1.00
20400;DHT22;10359;53.596;22.520;2023-04-06T07:47:56;2.90;1.00
20400;DHT22;10359;53.596;22.520;2023-04-06T07:50:45;2.80;1.00
20400;DHT22;10359;53.596;22.520;2023-04-06T07:53:35;2.90;1.00
20400;DHT22;10359;53.596;22.520;2023-04-06T07:56:26;2.80;1.00
20400;DHT22;10359;53.596;22.520;2023-04-06T07:59:17;2.90;1.00
20400;DHT22;10359;53.596;22.520;2023-04-06T08:02:07;3.00;1.00
20400;DHT22;10359;53.596;22.520;2023-04-06T08:04:58;3.20;1.00
20400;DHT22;10359;53.596;22.520;2023-04-06T08:07:48;3.30;1.00
20400;DHT22;10359;53.596;22.520;2023-04-06T08:10:37;3.30;1.00
20400;DHT22;10359;53.596;22.520;2023-04-06T08:13:29;3.40;1.00
20400;DHT22;10359;53.596;22.520;2023-04-06T08:16:19;3.40;1.00
20400;DHT22;10359;53.596;22.520;2023-04-06T08:19:09;3.50;1.00
20400;DHT22;10359;53.596;22.520;2023-04-06T08:21:59;3.70;1.00
20400;DHT22;10359;53.596;22.520;2023-04-06T08:24:49;3.80;1.00
20400;DHT22;10359;53.596;22.520;2023-04-06T08:27:38;3.90;1.00
20400;DHT22;10359;53.596;22.520;2023-04-06T08:30:30;3.90;1.00
20400;DHT22;10359;53.596;22.520;2023-04-06T08:33:20;4.10;99.90
20400;DHT22;10359;53.596;22.520;2023-04-06T08:36:11;3.90;99.90
20400;DHT22;10359;53.596;22.520;2023-04-06T08:39:02;3.90;1.00
20400;DHT22;10359;53.596;22.520;2023-04-06T08:41:52;3.80;1.00
20400;DHT22;10359;53.596;22.520;2023-04-06T08:44:44;3.80;1.00
20400;DHT22;10359;53.596;22.520;2023-04-06T08:47:36;4.10;1.00
20400;DHT22;10359;53.596;22.520;2023-04-06T08:50:29;3.90;1.00
20400;DHT22;10359;53.596;22.520;2023-04-06T08:53:19;3.80;1.00
20400;DHT22;10359;53.596;22.520;2023-04-06T08:56:11;3.70;1.00
20400;DHT22;10359;53.596;22.520;2023-04-06T08:59:01;3.60;1.00
20400;DHT22;10359;53.596;22.520;2023-04-06T09:01:53;3.60;1.00
20400;DHT22;10359;53.596;22.520;2023-04-06T09:04:46;3.50;1.00
20400;DHT22;10359;53.596;22.520;2023-04-06T09:07:37;3.50;1.00
20400;DHT22;10359;53.596;22.520;2023-04-06T09:10:28;3.70;1.00
20400;DHT22;10359;53.596;22.520;2023-04-06T09:13:18;3.90;1.00
20400;DHT22;10359;53.596;22.520;2023-04-06T09:16:08;3.80;1.00
20400;DHT22;10359;53.596;22.520;2023-04-06T09:19:04;3.90;1.00
20400;DHT22;10359;53.596;22.520;2023-04-06T09:22:06;4.20;1.00
20400;DHT22;10359;53.596;22.520;2023-04-06T09:25:03;4.10;1.00
20400;DHT22;10359;53.596;22.520;2023-04-06T09:28:03;4.20;1.00
20400;DHT22;10359;53.596;22.520;2023-04-06T09:31:03;4.20;1.00
20400;DHT22;10359;53.596;22.520;2023-04-06T09:33:59;4.30;1.00
20400;DHT22;10359;53.596;22.520;2023-04-06T09:36:56;4.30;1.00
20400;DHT22;10359;53.596;22.520;2023-04-06T09:40:02;4.20;1.00
20400;DHT22;10359;53.596;22.520;2023-04-06T09:42:52;4.30;1.00
20400;DHT22;10359;53.596;22.520;2023-04-06T09:45:45;4.20;1.00
20400;DHT22;10359;53.596;22.520;2023-04-06T09:48:35;4.20;1.00
20400;DHT22;10359;53.596;22.520;2023-04-06T09:51:26;4.20;1.00
20400;DHT22;10359;53.596;22.520;2023-04-06T09:54:22;4.20;1.00
20400;DHT22;10359;53.596;22.520;2023-04-06T09:57:23;4.20;1.00
20400;DHT22;10359;53.596;22.520;2023-04-06T10:00:19;4.40;1.00
20400;DHT22;10359;53.596;22.520;2023-04-06T10:03:18;4.60;1.00
20400;DHT22;10359;53.596;22.520;2023-04-06T10:06:12;4.70;1.00
20400;DHT22;10359;53.596;22.520;2023-04-06T10:09:04;4.70;1.00
20400;DHT22;10359;53.596;22.520;2023-04-06T10:11:56;5.00;1.00
20400;DHT22;10359;53.596;22.520;2023-04-06T10:14:49;5.00;1.00
20400;DHT22;10359;53.596;22.520;2023-04-06T10:17:39;5.20;1.00
20400;DHT22;10359;53.596;22.520;2023-04-06T10:20:32;5.30;1.00
20400;DHT22;10359;53.596;22.520;2023-04-06T10:23:29;5.30;99.90
20400;DHT22;10359;53.596;22.520;2023-04-06T10:26:21;5.20;99.90
20400;DHT22;10359;53.596;22.520;2023-04-06T10:29:11;5.00;1.00
20400;DHT22;10359;53.596;22.520;2023-04-06T10:32:03;4.80;1.00
20400;DHT22;10359;53.596;22.520;2023-04-06T10:34:52;4.90;1.00
20400;DHT22;10359;53.596;22.520;2023-04-06T10:37:52;5.10;1.00
20400;DHT22;10359;53.596;22.520;2023-04-06T10:40:42;4.90;1.00
20400;DHT22;10359;53.596;22.520;2023-04-06T10:43:34;5.00;1.00
20400;DHT22;10359;53.596;22.520;2023-04-06T10:46:28;4.90;1.00
20400;DHT22;10359;53.596;22.520;2023-04-06T10:49:20;4.70;1.00
20400;DHT22;10359;53.596;22.520;2023-04-06T10:52:13;5.10;1.00
20400;DHT22;10359;53.596;22.520;2023-04-06T10:55:02;5.30;1.00
20400;DHT22;10359;53.596;22.520;2023-04-06T10:57:52;5.20;1.00
20400;DHT22;10359;53.596;22.520;2023-04-06T11:00:45;4.90;1.00
20400;DHT22;10359;53.596;22.520;2023-04-06T11:03:43;5.10;1.00
20400;DHT22;10359;53.596;22.520;2023-04-06T11:06:35;5.30;1.00
20400;DHT22;10359;53.596;22.520;2023-04-06T11:09:25;5.50;1.00
20400;DHT22;10359;53.596;22.520;2023-04-06T11:12:21;5.60;1.00
20400;DHT22;10359;53.596;22.520;2023-04-06T11:15:11;5.40;1.00
20400;DHT22;10359;53.596;22.520;2023-04-06T11:18:04;5.30;1.00
20400;DHT22;10359;53.596;22.520;2023-04-06T11:20:54;5.10;1.00
20400;DHT22;10359;53.596;22.520;2023-04-06T11:23:45;4.90;1.00
20400;DHT22;10359;53.596;22.520;2023-04-06T11:26:43;5.00;1.00
20400;DHT22;10359;53.596;22.520;2023-04-06T11:29:34;5.30;1.00
20400;DHT22;10359;53.596;22.520;2023-04-06T11:32:25;5.60;1.00
20400;DHT22;10359;53.596;22.520;2023-04-06T11:35:20;5.50;1.00
20400;DHT22;10359;53.596;22.520;2023-04-06T11:38:10;5.20;1.00
20400;DHT22;10359;53.596;22.520;2023-04-06T11:41:02;5.20;1.00
20400;DHT22;10359;53.596;22.520;2023-04-06T11:43:55;5.10;1.00
20400;DHT22;10359;53.596;22.520;2023-04-06T11:46:52;5.10;1.00
20400;DHT22;10359;53.596;22.520;2023-04-06T11:49:44;5.10;1.00
20400;DHT22;10359;53.596;22.520;2023-04-06T11:52:34;5.10;1.00
20400;DHT22;10359;53.596;22.520;2023-04-06T11:55:24;4.90;1.00
20400;DHT22;10359;53.596;22.520;2023-04-06T11:58:15;5.10;1.00
20400;DHT22;10359;53.596;22.520;2023-04-06T12:01:05;5.20;1.00
20400;DHT22;10359;53.596;22.520;2023-04-06T12:03:55;5.10;1.00
20400;DHT22;10359;53.596;22.520;2023-04-06T12:06:45;5.30;1.00
20400;DHT22;10359;53.596;22.520;2023-04-06T12:09:35;5.30;1.00
20400;DHT22;10359;53.596;22.520;2023-04-06T12:12:25;5.50;1.00
20400;DHT22;10359;53.596;22.520;2023-04-06T12:15:16;5.60;1.00
20400;DHT22;10359;53.596;22.520;2023-04-06T12:18:06;5.90;1.00
20400;DHT22;10359;53.596;22.520;2023-04-06T12:20:56;6.10;1.00
20400;DHT22;10359;53.596;22.520;2023-04-06T12:23:46;6.00;99.90
20400;DHT22;10359;53.596;22.520;2023-04-06T12:26:36;6.10;99.90
20400;DHT22;10359;53.596;22.520;2023-04-06T12:29:26;6.40;99.90
20400;DHT22;10359;53.596;22.520;2023-04-06T12:32:18;6.50;99.90
20400;DHT22;10359;53.596;22.520;2023-04-06T12:35:09;6.30;99.90
20400;DHT22;10359;53.596;22.520;2023-04-06T12:37:59;6.10;99.90
20400;DHT22;10359;53.596;22.520;2023-04-06T12:40:50;5.90;99.90
20400;DHT22;10359;53.596;22.520;2023-04-06T12:43:40;5.90;1.00
20400;DHT22;10359;53.596;22.520;2023-04-06T12:46:30;5.80;1.00
20400;DHT22;10359;53.596;22.520;2023-04-06T12:49:21;5.90;1.00
20400;DHT22;10359;53.596;22.520;2023-04-06T12:52:11;6.00;1.00
20400;DHT22;10359;53.596;22.520;2023-04-06T12:55:01;6.10;99.90
20400;DHT22;10359;53.596;22.520;2023-04-06T12:57:51;6.30;1.00
20400;DHT22;10359;53.596;22.520;2023-04-06T13:00:41;6.30;99.90
20400;DHT22;10359;53.596;22.520;2023-04-06T13:03:31;6.50;99.90
20400;DHT22;10359;53.596;22.520;2023-04-06T13:06:22;6.70;99.90
20400;DHT22;10359;53.596;22.520;2023-04-06T13:09:15;6.90;99.90
20400;DHT22;10359;53.596;22.520;2023-04-06T13:12:05;6.50;99.90
20400;DHT22;10359;53.596;22.520;2023-04-06T13:14:54;6.30;99.90
20400;DHT22;10359;53.596;22.520;2023-04-06T13:17:44;6.30;99.90
20400;DHT22;10359;53.596;22.520;2023-04-06T13:20:34;6.40;1.00
20400;DHT22;10359;53.596;22.520;2023-04-06T13:23:26;6.60;99.90
20400;DHT22;10359;53.596;22.520;2023-04-06T13:26:16;6.80;99.90
20400;DHT22;10359;53.596;22.520;2023-04-06T13:29:05;6.70;99.90
20400;DHT22;10359;53.596;22.520;2023-04-06T13:31:55;6.70;99.90
20400;DHT22;10359;53.596;22.520;2023-04-06T13:34:44;6.50;1.00
20400;DHT22;10359;53.596;22.520;2023-04-06T13:37:37;6.50;99.90
20400;DHT22;10359;53.596;22.520;2023-04-06T13:40:29;6.50;1.00
20400;DHT22;10359;53.596;22.520;2023-04-06T13:43:19;6.30;99.90
20400;DHT22;10359;53.596;22.520;2023-04-06T13:46:09;6.40;1.00
20400;DHT22;10359;53.596;22.520;2023-04-06T13:48:59;6.20;1.00
20400;DHT22;10359;53.596;22.520;2023-04-06T13:51:49;6.30;1.00
20400;DHT22;10359;53.596;22.520;2023-04-06T13:54:39;6.30;1.00
20400;DHT22;10359;53.596;22.520;2023-04-06T13:57:30;6.20;1.00
20400;DHT22;10359;53.596;22.520;2023-04-06T14:00:20;6.10;1.00
20400;DHT22;10359;53.596;22.520;2023-04-06T14:03:10;6.10;1.00
20400;DHT22;10359;53.596;22.520;2023-04-06T14:10:02;6.50;1.00
20400;DHT22;10359;53.596;22.520;2023-04-06T14:12:54;6.40;1.00
20400;DHT22;10359;53.596;22.520;2023-04-06T14:15:46;6.40;1.00
20400;DHT22;10359;53.596;22.520;2023-04-06T14:18:36;6.50;1.00
20400;DHT22;10359;53.596;22.520;2023-04-06T14:21:26;6.40;1.00
20400;DHT22;10359;53.596;22.520;2023-04-06T14:24:17;6.50;1.00
20400;DHT22;10359;53.596;22.520;2023-04-06T14:27:07;6.50;1.00
20400;DHT22;10359;53.596;22.520;2023-04-06T14:29:58;6.50;1.00
20400;DHT22;10359;53.596;22.520;2023-04-06T14:32:48;6.50;1.00
20400;DHT22;10359;53.596;22.520;2023-04-06T14:35:38;6.50;1.00
20400;DHT22;10359;53.596;22.520;2023-04-06T14:38:28;6.50;1.00
20400;DHT22;10359;53.596;22.520;2023-04-06T14:41:18;6.40;1.00
20400;DHT22;10359;53.596;22.520;2023-04-06T14:44:08;6.30;1.00
20400;DHT22;10359;53.596;22.520;2023-04-06T14:47:02;6.30;1.00
20400;DHT22;10359;53.596;22.520;2023-04-06T14:49:53;6.10;1.00
20400;DHT22;10359;53.596;22.520;2023-04-06T14:52:42;5.90;1.00
20400;DHT22;10359;53.596;22.520;2023-04-06T14:55:39;5.90;1.00
20400;DHT22;10359;53.596;22.520;2023-04-06T14:58:30;5.80;1.00
20400;DHT22;10359;53.596;22.520;2023-04-06T15:01:19;5.80;1.00
20400;DHT22;10359;53.596;22.520;2023-04-06T15:04:11;5.90;1.00
20400;DHT22;10359;53.596;22.520;2023-04-06T15:07:02;5.90;1.00
20400;DHT22;10359;53.596;22.520;2023-04-06T15:09:51;6.00;1.00
20400;DHT22;10359;53.596;22.520;2023-04-06T15:12:41;6.10;1.00
20400;DHT22;10359;53.596;22.520;2023-04-06T15:15:31;6.10;1.00
20400;DHT22;10359;53.596;22.520;2023-04-06T15:18:20;6.10;1.00
20400;DHT22;10359;53.596;22.520;2023-04-06T15:21:12;6.00;1.00
20400;DHT22;10359;53.596;22.520;2023-04-06T15:24:02;6.00;1.00
20400;DHT22;10359;53.596;22.520;2023-04-06T15:26:54;5.90;1.00
20400;DHT22;10359;53.596;22.520;2023-04-06T15:29:44;5.90;1.00
20400;DHT22;10359;53.596;22.520;2023-04-06T15:32:34;5.90;1.00
20400;DHT22;10359;53.596;22.520;2023-04-06T15:35:24;5.90;1.00
20400;DHT22;10359;53.596;22.520;2023-04-06T15:38:16;5.90;1.00
20400;DHT22;10359;53.596;22.520;2023-04-06T15:41:05;5.80;1.00
20400;DHT22;10359;53.596;22.520;2023-04-06T15:43:58;5.80;1.00
20400;DHT22;10359;53.596;22.520;2023-04-06T15:46:49;5.90;1.00
20400;DHT22;10359;53.596;22.520;2023-04-06T15:49:40;5.80;1.00
20400;DHT22;10359;53.596;22.520;2023-04-06T15:52:30;5.90;1.00
20400;DHT22;10359;53.596;22.520;2023-04-06T15:55:21;5.80;1.00
20400;DHT22;10359;53.596;22.520;2023-04-06T15:58:11;5.80;1.00
20400;DHT22;10359;53.596;22.520;2023-04-06T16:01:10;5.80;1.00
20400;DHT22;10359;53.596;22.520;2023-04-06T16:04:01;5.80;1.00
20400;DHT22;10359;53.596;22.520;2023-04-06T16:06:50;5.80;1.00
20400;DHT22;10359;53.596;22.520;2023-04-06T16:09:42;5.80;1.00
20400;DHT22;10359;53.596;22.520;2023-04-06T16:12:33;5.80;1.00
20400;DHT22;10359;53.596;22.520;2023-04-06T16:15:22;5.70;1.00
20400;DHT22;10359;53.596;22.520;2023-04-06T16:18:12;5.70;1.00
20400;DHT22;10359;53.596;22.520;2023-04-06T16:21:01;5.60;1.00
20400;DHT22;10359;53.596;22.520;2023-04-06T16:23:52;5.60;1.00
20400;DHT22;10359;53.596;22.520;2023-04-06T16:26:44;5.60;1.00
20400;DHT22;10359;53.596;22.520;2023-04-06T16:29:36;5.60;1.00
20400;DHT22;10359;53.596;22.520;2023-04-06T16:32:27;5.60;1.00
20400;DHT22;10359;53.596;22.520;2023-04-06T16:35:24;5.60;1.00
20400;DHT22;10359;53.596;22.520;2023-04-06T16:38:14;5.60;1.00
20400;DHT22;10359;53.596;22.520;2023-04-06T16:41:04;5.60;1.00
20400;DHT22;10359;53.596;22.520;2023-04-06T16:43:54;5.60;1.00
20400;DHT22;10359;53.596;22.520;2023-04-06T16:46:46;5.60;1.00
20400;DHT22;10359;53.596;22.520;2023-04-06T16:49:35;5.50;1.00
20400;DHT22;10359;53.596;22.520;2023-04-06T16:52:25;5.50;1.00
20400;DHT22;10359;53.596;22.520;2023-04-06T16:55:15;5.50;1.00
20400;DHT22;10359;53.596;22.520;2023-04-06T16:58:05;5.50;1.00
20400;DHT22;10359;53.596;22.520;2023-04-06T17:00:54;5.40;1.00
20400;DHT22;10359;53.596;22.520;2023-04-06T17:03:46;5.40;1.00
20400;DHT22;10359;53.596;22.520;2023-04-06T17:06:36;5.40;1.00
20400;DHT22;10359;53.596;22.520;2023-04-06T17:09:25;5.30;1.00
20400;DHT22;10359;53.596;22.520;2023-04-06T17:12:15;5.30;1.00
20400;DHT22;10359;53.596;22.520;2023-04-06T17:15:06;5.30;1.00
20400;DHT22;10359;53.596;22.520;2023-04-06T17:17:56;5.30;1.00
20400;DHT22;10359;53.596;22.520;2023-04-06T17:20:48;5.30;1.00
20400;DHT22;10359;53.596;22.520;2023-04-06T17:23:38;5.20;1.00
20400;DHT22;10359;53.596;22.520;2023-04-06T17:26:33;5.20;1.00
20400;DHT22;10359;53.596;22.520;2023-04-06T17:29:23;5.20;1.00
20400;DHT22;10359;53.596;22.520;2023-04-06T17:32:15;5.20;1.00
20400;DHT22;10359;53.596;22.520;2023-04-06T17:35:11;5.20;1.00
20400;DHT22;10359;53.596;22.520;2023-04-06T17:38:02;5.20;1.00
20400;DHT22;10359;53.596;22.520;2023-04-06T17:40:53;5.20;1.00
20400;DHT22;10359;53.596;22.520;2023-04-06T17:43:43;5.20;1.00
20400;DHT22;10359;53.596;22.520;2023-04-06T17:46:33;5.20;1.00
20400;DHT22;10359;53.596;22.520;2023-04-06T17:49:23;5.20;1.00
20400;DHT22;10359;53.596;22.520;2023-04-06T17:52:13;5.30;1.00
20400;DHT22;10359;53.596;22.520;2023-04-06T17:55:05;5.30;1.00
20400;DHT22;10359;53.596;22.520;2023-04-06T17:57:55;5.30;1.00
20400;DHT22;10359;53.596;22.520;2023-04-06T18:00:44;5.20;1.00
20400;DHT22;10359;53.596;22.520;2023-04-06T18:03:34;5.20;1.00
20400;DHT22;10359;53.596;22.520;2023-04-06T18:06:23;5.20;1.00
20400;DHT22;10359;53.596;22.520;2023-04-06T18:09:13;5.20;1.00
20400;DHT22;10359;53.596;22.520;2023-04-06T18:12:05;5.20;1.00
20400;DHT22;10359;53.596;22.520;2023-04-06T18:14:55;5.30;1.00
20400;DHT22;10359;53.596;22.520;2023-04-06T18:17:45;5.30;1.00
20400;DHT22;10359;53.596;22.520;2023-04-06T18:20:39;5.30;1.00